Canadian, TX

8:19 AM CDT on July 13, 2014 (GMT -0500)
Hemphill County (KHHF) Elev 2395 ft | 35.89 °N, 100.40 °W | Change Station

Current weather conditions updated 24 minutes ago

Clear
Clear
75 °F
Feels Like 75 °F
N
7
Wind Variable Wind from North

Today is forecast to be Warmer than yesterday. Showers and thunderstorms early tonight.

Today
High -- | Low -- °F
--% Chance of Precip.
Yesterday
High -- | Low -- °F
Precip. -- in
6:35 AM 8:59 PM
Full, 98% visible
Pressure 30.14 in
Visibility 10.0 miles
Clouds Clear
Dew Point 67 °F
Humidity 76%
Rainfall 0.00 in
Snow Depth Not available.
UV 1 out of 12
Pollen 3.90 out of 12
Air Quality Not available.
Flu Activity Sporadic
METAR KHHF 131255Z AUTO 35006KT 10SM CLR 24/20 A3014 RMK AO2 T02400196

More Conditions Fewer Conditions

Pressure 30.14 in
Visibility 10.0 miles
Clouds Clear
Dew Point 67 °F
Humidity 76%
Rainfall 0.00 in
Snow Depth Not available.
UV 1 out of 12
Pollen 3.90 out of 12
Air Quality Not available.
Flu Activity Sporadic
METAR KHHF 131255Z AUTO 35006KT 10SM CLR 24/20 A3014 RMK AO2 T02400196

More Conditions Fewer Conditions

10-Day Weather Forecast

Almanac

Astronomy

Jul. 13, 2014 Rise Set
Actual Time 6:35 AM CDT 8:59 PM CDT
Civil Twilight 6:05 AM CDT 9:28 PM CDT
Nautical Twilight 5:29 AM CDT 10:04 PM CDT
Astronomical Twilight 4:49 AM CDT 10:44 PM CDT
Moon 9:54 PM CDT 8:03 AM CDT
Length of Visible Light 15h 22m
Length of Day
14h 23m
Tomorrow will be 1m 6s shorter.
Full, 98% of the Moon is Illuminated
Today
Full
Jul 18
Last Quarter
Jul 26
New
Aug 3
First Quarter
Aug 10
Full

Today's Extremes

State Highs State Lows

Community

WunderPhotos

Upload Photos

1,733,187 photos uploaded!

Nearby

Snow Depth

Station Depth Elevation
No new snow has been reported.

Earthquake Activity

City Distance Mag. Time & Date
No recent earthquake activity has been reported nearby.
Minimum magnitude displayed is 2.5.

Coastal Water Temperatures

Place Temperature
No Stations Reporting

Nearby Weather Stations

There are no personal weather stations in this area.